sensor_id;sensor_type;location;lat;lon;timestamp;P1;durP1;ratioP1;P2;durP2;ratioP2
72273;SDS011;60208;48.692;8.948;2023-05-14T00:01:44;10.48;;;9.40;;
72273;SDS011;60208;48.692;8.948;2023-05-14T00:04:10;10.38;;;9.25;;
72273;SDS011;60208;48.692;8.948;2023-05-14T00:06:46;10.50;;;9.02;;
72273;SDS011;60208;48.692;8.948;2023-05-14T00:09:15;10.52;;;9.02;;
72273;SDS011;60208;48.692;8.948;2023-05-14T00:11:43;10.23;;;8.60;;
72273;SDS011;60208;48.692;8.948;2023-05-14T00:14:08;10.73;;;8.73;;
72273;SDS011;60208;48.692;8.948;2023-05-14T00:16:34;10.13;;;8.65;;
72273;SDS011;60208;48.692;8.948;2023-05-14T00:18:59;9.80;;;8.80;;
72273;SDS011;60208;48.692;8.948;2023-05-14T00:21:24;10.77;;;8.88;;
72273;SDS011;60208;48.692;8.948;2023-05-14T00:24:01;9.82;;;8.82;;
72273;SDS011;60208;48.692;8.948;2023-05-14T00:26:30;9.40;;;8.50;;
72273;SDS011;60208;48.692;8.948;2023-05-14T00:28:58;10.20;;;9.00;;
72273;SDS011;60208;48.692;8.948;2023-05-14T00:31:27;10.30;;;8.68;;
72273;SDS011;60208;48.692;8.948;2023-05-14T00:33:52;9.38;;;8.38;;
72273;SDS011;60208;48.692;8.948;2023-05-14T00:36:18;9.05;;;8.15;;
72273;SDS011;60208;48.692;8.948;2023-05-14T00:38:49;10.63;;;9.48;;
72273;SDS011;60208;48.692;8.948;2023-05-14T00:41:15;9.95;;;8.55;;
72273;SDS011;60208;48.692;8.948;2023-05-14T00:43:43;11.45;;;8.75;;
72273;SDS011;60208;48.692;8.948;2023-05-14T00:46:08;9.88;;;8.50;;
72273;SDS011;60208;48.692;8.948;2023-05-14T00:48:36;10.77;;;9.32;;
72273;SDS011;60208;48.692;8.948;2023-05-14T00:51:01;10.05;;;9.00;;
72273;SDS011;60208;48.692;8.948;2023-05-14T00:53:33;11.48;;;9.50;;
72273;SDS011;60208;48.692;8.948;2023-05-14T00:55:59;10.75;;;9.65;;
72273;SDS011;60208;48.692;8.948;2023-05-14T00:58:25;10.75;;;9.45;;
72273;SDS011;60208;48.692;8.948;2023-05-14T01:00:50;9.55;;;8.65;;
72273;SDS011;60208;48.692;8.948;2023-05-14T01:03:16;10.98;;;9.05;;
72273;SDS011;60208;48.692;8.948;2023-05-14T01:05:45;10.18;;;9.13;;
72273;SDS011;60208;48.692;8.948;2023-05-14T01:17:34;9.77;;;8.70;;
72273;SDS011;60208;48.692;8.948;2023-05-14T01:20:10;10.90;;;9.00;;
72273;SDS011;60208;48.692;8.948;2023-05-14T01:22:41;10.00;;;9.00;;
72273;SDS011;60208;48.692;8.948;2023-05-14T01:25:07;10.27;;;9.13;;
72273;SDS011;60208;48.692;8.948;2023-05-14T01:30:23;10.35;;;9.35;;
72273;SDS011;60208;48.692;8.948;2023-05-14T01:33:09;9.77;;;8.88;;
72273;SDS011;60208;48.692;8.948;2023-05-14T01:35:35;10.48;;;8.68;;
72273;SDS011;60208;48.692;8.948;2023-05-14T01:38:15;10.98;;;8.93;;
72273;SDS011;60208;48.692;8.948;2023-05-14T01:40:42;9.43;;;8.52;;
72273;SDS011;60208;48.692;8.948;2023-05-14T01:43:15;15.90;;;8.82;;
72273;SDS011;60208;48.692;8.948;2023-05-14T01:45:41;8.98;;;8.18;;
72273;SDS011;60208;48.692;8.948;2023-05-14T01:48:12;9.32;;;8.43;;
72273;SDS011;60208;48.692;8.948;2023-05-14T01:50:40;10.35;;;8.93;;
72273;SDS011;60208;48.692;8.948;2023-05-14T01:53:05;9.05;;;8.10;;
72273;SDS011;60208;48.692;8.948;2023-05-14T01:55:37;12.60;;;9.18;;
72273;SDS011;60208;48.692;8.948;2023-05-14T01:58:02;10.48;;;8.73;;
72273;SDS011;60208;48.692;8.948;2023-05-14T02:00:28;9.70;;;8.77;;
72273;SDS011;60208;48.692;8.948;2023-05-14T02:02:53;10.30;;;8.90;;
72273;SDS011;60208;48.692;8.948;2023-05-14T02:05:18;9.95;;;8.35;;
72273;SDS011;60208;48.692;8.948;2023-05-14T02:07:45;9.07;;;8.15;;
72273;SDS011;60208;48.692;8.948;2023-05-14T02:10:10;8.95;;;8.05;;
72273;SDS011;60208;48.692;8.948;2023-05-14T02:12:35;9.38;;;8.48;;
72273;SDS011;60208;48.692;8.948;2023-05-14T02:15:04;9.80;;;8.80;;
72273;SDS011;60208;48.692;8.948;2023-05-14T02:17:33;9.75;;;8.77;;
72273;SDS011;60208;48.692;8.948;2023-05-14T02:19:59;8.05;;;7.25;;
72273;SDS011;60208;48.692;8.948;2023-05-14T02:22:24;9.90;;;8.90;;
72273;SDS011;60208;48.692;8.948;2023-05-14T02:24:53;9.65;;;8.60;;
72273;SDS011;60208;48.692;8.948;2023-05-14T02:27:18;9.95;;;8.95;;
72273;SDS011;60208;48.692;8.948;2023-05-14T02:29:43;9.45;;;8.55;;
72273;SDS011;60208;48.692;8.948;2023-05-14T02:32:09;10.00;;;9.00;;
72273;SDS011;60208;48.692;8.948;2023-05-14T02:34:34;9.93;;;8.68;;
72273;SDS011;60208;48.692;8.948;2023-05-14T02:37:00;9.98;;;8.95;;
72273;SDS011;60208;48.692;8.948;2023-05-14T02:39:26;10.63;;;8.95;;
72273;SDS011;60208;48.692;8.948;2023-05-14T02:41:54;9.40;;;8.50;;
72273;SDS011;60208;48.692;8.948;2023-05-14T02:44:19;9.52;;;8.52;;
72273;SDS011;60208;48.692;8.948;2023-05-14T02:46:45;10.57;;;8.88;;
72273;SDS011;60208;48.692;8.948;2023-05-14T02:49:10;11.05;;;8.98;;
72273;SDS011;60208;48.692;8.948;2023-05-14T02:51:36;9.75;;;8.75;;
72273;SDS011;60208;48.692;8.948;2023-05-14T02:54:01;9.70;;;8.77;;
72273;SDS011;60208;48.692;8.948;2023-05-14T02:56:26;10.05;;;9.05;;
72273;SDS011;60208;48.692;8.948;2023-05-14T02:58:52;10.60;;;8.93;;
72273;SDS011;60208;48.692;8.948;2023-05-14T03:01:17;10.85;;;9.18;;
72273;SDS011;60208;48.692;8.948;2023-05-14T03:03:43;10.82;;;9.68;;
72273;SDS011;60208;48.692;8.948;2023-05-14T03:06:08;10.13;;;9.13;;
72273;SDS011;60208;48.692;8.948;2023-05-14T03:08:34;9.95;;;8.80;;
72273;SDS011;60208;48.692;8.948;2023-05-14T03:10:59;11.02;;;8.98;;
72273;SDS011;60208;48.692;8.948;2023-05-14T03:13:28;10.27;;;9.27;;
72273;SDS011;60208;48.692;8.948;2023-05-14T03:15:53;10.93;;;9.50;;
72273;SDS011;60208;48.692;8.948;2023-05-14T03:18:21;10.25;;;9.20;;
72273;SDS011;60208;48.692;8.948;2023-05-14T03:20:52;9.68;;;8.75;;
72273;SDS011;60208;48.692;8.948;2023-05-14T03:23:17;14.40;;;9.52;;
72273;SDS011;60208;48.692;8.948;2023-05-14T03:25:42;11.52;;;9.30;;
72273;SDS011;60208;48.692;8.948;2023-05-14T03:28:08;10.15;;;9.07;;
72273;SDS011;60208;48.692;8.948;2023-05-14T03:30:33;9.88;;;8.98;;
72273;SDS011;60208;48.692;8.948;2023-05-14T03:32:59;9.98;;;8.98;;
72273;SDS011;60208;48.692;8.948;2023-05-14T03:35:24;10.43;;;9.32;;
72273;SDS011;60208;48.692;8.948;2023-05-14T03:37:50;10.05;;;9.05;;
72273;SDS011;60208;48.692;8.948;2023-05-14T03:40:17;11.55;;;8.60;;
72273;SDS011;60208;48.692;8.948;2023-05-14T03:42:42;10.20;;;9.20;;
72273;SDS011;60208;48.692;8.948;2023-05-14T03:45:08;10.23;;;9.20;;
72273;SDS011;60208;48.692;8.948;2023-05-14T03:47:33;10.38;;;8.70;;
72273;SDS011;60208;48.692;8.948;2023-05-14T03:49:59;10.95;;;9.10;;
72273;SDS011;60208;48.692;8.948;2023-05-14T03:52:27;10.82;;;8.77;;
72273;SDS011;60208;48.692;8.948;2023-05-14T03:54:52;10.05;;;8.95;;
72273;SDS011;60208;48.692;8.948;2023-05-14T03:57:20;9.45;;;8.55;;
72273;SDS011;60208;48.692;8.948;2023-05-14T03:59:46;9.70;;;8.80;;
72273;SDS011;60208;48.692;8.948;2023-05-14T04:02:14;10.25;;;9.02;;
72273;SDS011;60208;48.692;8.948;2023-05-14T04:04:39;9.90;;;8.90;;
72273;SDS011;60208;48.692;8.948;2023-05-14T04:07:06;12.65;;;8.73;;
72273;SDS011;60208;48.692;8.948;2023-05-14T04:09:32;10.27;;;9.18;;
72273;SDS011;60208;48.692;8.948;2023-05-14T04:11:58;9.98;;;8.95;;
72273;SDS011;60208;48.692;8.948;2023-05-14T04:14:23;9.93;;;8.93;;
72273;SDS011;60208;48.692;8.948;2023-05-14T04:17:02;9.75;;;8.77;;
72273;SDS011;60208;48.692;8.948;2023-05-14T04:19:28;9.90;;;8.80;;
72273;SDS011;60208;48.692;8.948;2023-05-14T04:21:53;8.80;;;7.95;;
72273;SDS011;60208;48.692;8.948;2023-05-14T04:24:20;13.52;;;9.05;;
72273;SDS011;60208;48.692;8.948;2023-05-14T04:26:46;9.77;;;8.52;;
72273;SDS011;60208;48.692;8.948;2023-05-14T04:29:11;12.50;;;8.93;;
72273;SDS011;60208;48.692;8.948;2023-05-14T04:31:36;11.68;;;8.95;;
72273;SDS011;60208;48.692;8.948;2023-05-14T04:34:02;10.75;;;9.38;;
72273;SDS011;60208;48.692;8.948;2023-05-14T04:36:30;10.25;;;9.25;;
72273;SDS011;60208;48.692;8.948;2023-05-14T04:38:56;10.18;;;8.50;;
72273;SDS011;60208;48.692;8.948;2023-05-14T04:41:21;11.70;;;8.98;;
72273;SDS011;60208;48.692;8.948;2023-05-14T04:43:50;9.73;;;8.82;;
72273;SDS011;60208;48.692;8.948;2023-05-14T04:46:15;9.93;;;8.88;;
72273;SDS011;60208;48.692;8.948;2023-05-14T04:48:40;9.07;;;8.18;;
72273;SDS011;60208;48.692;8.948;2023-05-14T04:51:09;10.20;;;9.13;;
72273;SDS011;60208;48.692;8.948;2023-05-14T04:53:34;11.25;;;9.48;;
72273;SDS011;60208;48.692;8.948;2023-05-14T04:56:00;10.93;;;9.32;;
72273;SDS011;60208;48.692;8.948;2023-05-14T04:58:28;12.00;;;9.40;;
72273;SDS011;60208;48.692;8.948;2023-05-14T05:00:56;10.15;;;9.15;;
72273;SDS011;60208;48.692;8.948;2023-05-14T05:03:24;10.23;;;9.13;;
72273;SDS011;60208;48.692;8.948;2023-05-14T05:05:50;10.27;;;9.18;;
72273;SDS011;60208;48.692;8.948;2023-05-14T05:08:16;10.35;;;9.35;;
72273;SDS011;60208;48.692;8.948;2023-05-14T05:10:47;9.77;;;8.57;;
72273;SDS011;60208;48.692;8.948;2023-05-14T05:13:13;10.18;;;9.18;;
72273;SDS011;60208;48.692;8.948;2023-05-14T05:15:39;10.05;;;9.02;;
72273;SDS011;60208;48.692;8.948;2023-05-14T05:18:04;12.02;;;9.00;;
72273;SDS011;60208;48.692;8.948;2023-05-14T05:20:30;11.55;;;9.05;;
72273;SDS011;60208;48.692;8.948;2023-05-14T05:22:58;10.35;;;9.35;;
72273;SDS011;60208;48.692;8.948;2023-05-14T05:25:23;12.68;;;9.88;;
72273;SDS011;60208;48.692;8.948;2023-05-14T05:27:58;10.68;;;9.27;;
72273;SDS011;60208;48.692;8.948;2023-05-14T05:30:26;11.10;;;9.88;;
72273;SDS011;60208;48.692;8.948;2023-05-14T05:32:54;9.35;;;8.40;;
72273;SDS011;60208;48.692;8.948;2023-05-14T05:35:21;10.32;;;9.25;;
72273;SDS011;60208;48.692;8.948;2023-05-14T05:37:46;10.80;;;9.70;;
72273;SDS011;60208;48.692;8.948;2023-05-14T05:40:18;10.40;;;9.40;;
72273;SDS011;60208;48.692;8.948;2023-05-14T05:42:43;11.10;;;9.40;;
72273;SDS011;60208;48.692;8.948;2023-05-14T05:45:08;10.57;;;9.52;;
72273;SDS011;60208;48.692;8.948;2023-05-14T05:47:43;10.55;;;9.45;;
72273;SDS011;60208;48.692;8.948;2023-05-14T05:50:11;11.25;;;9.30;;
72273;SDS011;60208;48.692;8.948;2023-05-14T05:52:37;10.57;;;9.50;;
72273;SDS011;60208;48.692;8.948;2023-05-14T05:55:03;12.20;;;9.25;;
72273;SDS011;60208;48.692;8.948;2023-05-14T05:57:29;11.27;;;8.65;;
72273;SDS011;60208;48.692;8.948;2023-05-14T05:59:55;9.50;;;8.48;;
72273;SDS011;60208;48.692;8.948;2023-05-14T06:02:20;9.15;;;8.10;;
72273;SDS011;60208;48.692;8.948;2023-05-14T06:04:49;9.40;;;8.38;;
72273;SDS011;60208;48.692;8.948;2023-05-14T06:07:14;13.00;;;11.25;;
72273;SDS011;60208;48.692;8.948;2023-05-14T06:09:39;8.93;;;8.02;;
72273;SDS011;60208;48.692;8.948;2023-05-14T06:12:05;10.50;;;8.50;;
72273;SDS011;60208;48.692;8.948;2023-05-14T06:14:30;10.25;;;8.35;;
72273;SDS011;60208;48.692;8.948;2023-05-14T06:16:56;11.07;;;7.95;;
72273;SDS011;60208;48.692;8.948;2023-05-14T06:19:22;9.25;;;8.32;;
72273;SDS011;60208;48.692;8.948;2023-05-14T06:21:48;8.40;;;7.60;;
72273;SDS011;60208;48.692;8.948;2023-05-14T06:24:13;9.43;;;7.85;;
72273;SDS011;60208;48.692;8.948;2023-05-14T06:26:40;9.15;;;8.25;;
72273;SDS011;60208;48.692;8.948;2023-05-14T06:29:05;9.57;;;8.57;;
72273;SDS011;60208;48.692;8.948;2023-05-14T06:31:31;9.40;;;8.27;;
72273;SDS011;60208;48.692;8.948;2023-05-14T06:33:56;9.52;;;8.52;;
72273;SDS011;60208;48.692;8.948;2023-05-14T06:36:21;10.40;;;8.40;;
72273;SDS011;60208;48.692;8.948;2023-05-14T06:38:47;9.32;;;8.38;;
72273;SDS011;60208;48.692;8.948;2023-05-14T06:41:15;10.82;;;8.43;;
72273;SDS011;60208;48.692;8.948;2023-05-14T06:43:40;10.27;;;9.02;;
72273;SDS011;60208;48.692;8.948;2023-05-14T06:46:06;10.10;;;8.45;;
72273;SDS011;60208;48.692;8.948;2023-05-14T06:48:34;10.20;;;8.55;;
72273;SDS011;60208;48.692;8.948;2023-05-14T06:51:00;9.35;;;8.40;;
72273;SDS011;60208;48.692;8.948;2023-05-14T06:53:27;10.40;;;8.60;;
72273;SDS011;60208;48.692;8.948;2023-05-14T06:55:52;11.38;;;8.60;;
72273;SDS011;60208;48.692;8.948;2023-05-14T06:58:23;9.82;;;8.75;;
72273;SDS011;60208;48.692;8.948;2023-05-14T07:00:51;8.90;;;8.00;;
72273;SDS011;60208;48.692;8.948;2023-05-14T07:03:16;9.95;;;8.95;;
72273;SDS011;60208;48.692;8.948;2023-05-14T07:05:48;9.27;;;8.18;;
72273;SDS011;60208;48.692;8.948;2023-05-14T07:08:13;10.02;;;9.02;;
72273;SDS011;60208;48.692;8.948;2023-05-14T07:10:39;10.32;;;8.65;;
72273;SDS011;60208;48.692;8.948;2023-05-14T07:13:04;10.10;;;8.70;;
72273;SDS011;60208;48.692;8.948;2023-05-14T07:15:30;9.68;;;8.68;;
72273;SDS011;60208;48.692;8.948;2023-05-14T07:17:55;10.65;;;8.35;;
72273;SDS011;60208;48.692;8.948;2023-05-14T07:20:21;10.73;;;9.23;;
72273;SDS011;60208;48.692;8.948;2023-05-14T07:22:48;10.57;;;8.45;;
72273;SDS011;60208;48.692;8.948;2023-05-14T07:25:14;9.45;;;8.50;;
72273;SDS011;60208;48.692;8.948;2023-05-14T07:27:45;10.50;;;8.60;;
72273;SDS011;60208;48.692;8.948;2023-05-14T07:30:13;9.65;;;8.65;;
72273;SDS011;60208;48.692;8.948;2023-05-14T07:32:39;10.15;;;8.68;;
72273;SDS011;60208;48.692;8.948;2023-05-14T07:35:04;9.70;;;8.40;;
72273;SDS011;60208;48.692;8.948;2023-05-14T07:37:30;10.55;;;9.52;;
72273;SDS011;60208;48.692;8.948;2023-05-14T07:40:02;9.23;;;8.35;;
72273;SDS011;60208;48.692;8.948;2023-05-14T07:42:30;8.85;;;7.95;;
72273;SDS011;60208;48.692;8.948;2023-05-14T07:44:56;11.23;;;9.10;;
72273;SDS011;60208;48.692;8.948;2023-05-14T07:47:21;9.63;;;7.75;;
72273;SDS011;60208;48.692;8.948;2023-05-14T07:49:50;10.27;;;8.10;;
72273;SDS011;60208;48.692;8.948;2023-05-14T07:52:27;8.38;;;7.57;;
72273;SDS011;60208;48.692;8.948;2023-05-14T07:55:02;8.25;;;7.22;;
72273;SDS011;60208;48.692;8.948;2023-05-14T07:57:28;11.40;;;8.07;;
72273;SDS011;60208;48.692;8.948;2023-05-14T07:59:56;8.27;;;7.53;;
72273;SDS011;60208;48.692;8.948;2023-05-14T08:02:21;8.80;;;7.90;;
72273;SDS011;60208;48.692;8.948;2023-05-14T08:04:47;7.80;;;7.10;;
72273;SDS011;60208;48.692;8.948;2023-05-14T08:07:12;9.00;;;7.35;;
72273;SDS011;60208;48.692;8.948;2023-05-14T08:09:38;9.02;;;8.13;;
72273;SDS011;60208;48.692;8.948;2023-05-14T08:12:03;8.77;;;7.88;;
72273;SDS011;60208;48.692;8.948;2023-05-14T08:14:51;8.67;;;7.77;;
72273;SDS011;60208;48.692;8.948;2023-05-14T08:17:26;9.45;;;8.15;;
72273;SDS011;60208;48.692;8.948;2023-05-14T08:19:56;10.98;;;8.82;;
72273;SDS011;60208;48.692;8.948;2023-05-14T08:22:24;9.68;;;7.97;;
72273;SDS011;60208;48.692;8.948;2023-05-14T08:24:50;9.10;;;8.20;;
72273;SDS011;60208;48.692;8.948;2023-05-14T08:27:43;11.60;;;8.75;;
72273;SDS011;60208;48.692;8.948;2023-05-14T08:30:18;10.38;;;8.60;;
72273;SDS011;60208;48.692;8.948;2023-05-14T08:33:11;10.18;;;8.27;;
72273;SDS011;60208;48.692;8.948;2023-05-14T08:38:33;10.15;;;8.13;;
72273;SDS011;60208;48.692;8.948;2023-05-14T08:41:40;8.82;;;7.93;;
72273;SDS011;60208;48.692;8.948;2023-05-14T08:44:33;8.82;;;8.02;;
72273;SDS011;60208;48.692;8.948;2023-05-14T08:50:11;10.25;;;8.70;;
72273;SDS011;60208;48.692;8.948;2023-05-14T08:52:48;9.13;;;8.23;;
72273;SDS011;60208;48.692;8.948;2023-05-14T08:55:19;9.98;;;8.43;;
72273;SDS011;60208;48.692;8.948;2023-05-14T08:57:50;9.23;;;8.32;;
72273;SDS011;60208;48.692;8.948;2023-05-14T09:00:25;10.45;;;8.73;;
72273;SDS011;60208;48.692;8.948;2023-05-14T09:03:10;9.27;;;8.48;;
72273;SDS011;60208;48.692;8.948;2023-05-14T09:05:50;9.32;;;8.32;;
72273;SDS011;60208;48.692;8.948;2023-05-14T09:08:43;10.32;;;9.32;;
72273;SDS011;60208;48.692;8.948;2023-05-14T09:11:26;10.32;;;8.77;;
72273;SDS011;60208;48.692;8.948;2023-05-14T09:14:50;9.30;;;8.35;;
72273;SDS011;60208;48.692;8.948;2023-05-14T09:17:35;9.93;;;8.45;;
72273;SDS011;60208;48.692;8.948;2023-05-14T09:23:31;8.60;;;7.72;;
72273;SDS011;60208;48.692;8.948;2023-05-14T09:26:21;10.23;;;8.20;;
72273;SDS011;60208;48.692;8.948;2023-05-14T09:29:12;9.02;;;8.13;;
72273;SDS011;60208;48.692;8.948;2023-05-14T09:31:58;9.38;;;7.82;;
72273;SDS011;60208;48.692;8.948;2023-05-14T09:38:18;9.05;;;7.30;;
72273;SDS011;60208;48.692;8.948;2023-05-14T09:44:47;9.43;;;7.00;;
72273;SDS011;60208;48.692;8.948;2023-05-14T09:47:41;9.05;;;7.20;;
72273;SDS011;60208;48.692;8.948;2023-05-14T09:50:46;7.18;;;6.40;;
72273;SDS011;60208;48.692;8.948;2023-05-14T09:56:34;7.18;;;6.20;;
72273;SDS011;60208;48.692;8.948;2023-05-14T09:59:13;7.80;;;7.03;;
72273;SDS011;60208;48.692;8.948;2023-05-14T10:02:19;6.72;;;5.75;;
72273;SDS011;60208;48.692;8.948;2023-05-14T10:04:51;6.28;;;5.53;;
72273;SDS011;60208;48.692;8.948;2023-05-14T10:07:46;7.22;;;6.53;;
72273;SDS011;60208;48.692;8.948;2023-05-14T10:17:01;8.23;;;6.47;;
72273;SDS011;60208;48.692;8.948;2023-05-14T10:19:52;7.20;;;6.20;;
72273;SDS011;60208;48.692;8.948;2023-05-14T10:22:44;8.63;;;7.13;;
72273;SDS011;60208;48.692;8.948;2023-05-14T10:31:15;8.18;;;6.70;;
72273;SDS011;60208;48.692;8.948;2023-05-14T10:34:19;7.50;;;6.80;;
72273;SDS011;60208;48.692;8.948;2023-05-14T10:37:46;7.70;;;6.88;;
72273;SDS011;60208;48.692;8.948;2023-05-14T10:40:41;8.68;;;6.80;;
72273;SDS011;60208;48.692;8.948;2023-05-14T10:46:33;6.05;;;5.50;;
72273;SDS011;60208;48.692;8.948;2023-05-14T10:49:15;5.43;;;4.93;;
72273;SDS011;60208;48.692;8.948;2023-05-14T10:52:06;5.20;;;4.70;;
72273;SDS011;60208;48.692;8.948;2023-05-14T10:55:07;5.75;;;5.10;;
72273;SDS011;60208;48.692;8.948;2023-05-14T10:57:36;7.00;;;5.22;;
72273;SDS011;60208;48.692;8.948;2023-05-14T11:00:32;5.63;;;5.00;;
72273;SDS011;60208;48.692;8.948;2023-05-14T11:03:14;5.32;;;4.82;;
72273;SDS011;60208;48.692;8.948;2023-05-14T11:06:11;5.20;;;4.70;;
72273;SDS011;60208;48.692;8.948;2023-05-14T11:12:11;6.82;;;4.95;;
72273;SDS011;60208;48.692;8.948;2023-05-14T11:21:15;4.57;;;3.80;;
72273;SDS011;60208;48.692;8.948;2023-05-14T11:24:05;5.40;;;4.50;;
72273;SDS011;60208;48.692;8.948;2023-05-14T11:27:33;5.15;;;3.90;;
72273;SDS011;60208;48.692;8.948;2023-05-14T11:30:30;4.65;;;4.20;;
72273;SDS011;60208;48.692;8.948;2023-05-14T11:33:15;5.07;;;4.38;;
72273;SDS011;60208;48.692;8.948;2023-05-14T11:39:17;3.60;;;3.30;;
72273;SDS011;60208;48.692;8.948;2023-05-14T11:42:11;3.78;;;3.40;;
72273;SDS011;60208;48.692;8.948;2023-05-14T11:48:19;5.75;;;4.40;;
72273;SDS011;60208;48.692;8.948;2023-05-14T11:54:12;5.18;;;4.05;;
72273;SDS011;60208;48.692;8.948;2023-05-14T11:56:48;5.60;;;5.10;;
72273;SDS011;60208;48.692;8.948;2023-05-14T11:59:23;5.75;;;5.25;;
72273;SDS011;60208;48.692;8.948;2023-05-14T12:02:01;5.20;;;4.80;;
72273;SDS011;60208;48.692;8.948;2023-05-14T12:04:48;4.63;;;4.20;;
72273;SDS011;60208;48.692;8.948;2023-05-14T12:07:58;4.00;;;3.67;;
72273;SDS011;60208;48.692;8.948;2023-05-14T12:10:23;4.93;;;3.90;;
72273;SDS011;60208;48.692;8.948;2023-05-14T12:12:50;4.30;;;3.90;;
72273;SDS011;60208;48.692;8.948;2023-05-14T12:15:22;3.23;;;2.93;;
72273;SDS011;60208;48.692;8.948;2023-05-14T12:18:02;4.03;;;3.72;;
72273;SDS011;60208;48.692;8.948;2023-05-14T12:33:40;4.18;;;3.58;;
72273;SDS011;60208;48.692;8.948;2023-05-14T12:36:37;4.53;;;4.13;;
72273;SDS011;60208;48.692;8.948;2023-05-14T12:39:33;6.35;;;4.35;;
72273;SDS011;60208;48.692;8.948;2023-05-14T12:42:08;4.40;;;4.00;;
72273;SDS011;60208;48.692;8.948;2023-05-14T12:45:09;6.65;;;3.60;;
72273;SDS011;60208;48.692;8.948;2023-05-14T12:47:38;3.63;;;3.33;;
72273;SDS011;60208;48.692;8.948;2023-05-14T12:50:28;3.22;;;2.92;;
72273;SDS011;60208;48.692;8.948;2023-05-14T12:56:46;3.13;;;2.90;;
72273;SDS011;60208;48.692;8.948;2023-05-14T13:02:30;4.40;;;3.15;;
72273;SDS011;60208;48.692;8.948;2023-05-14T13:05:19;3.40;;;3.10;;
72273;SDS011;60208;48.692;8.948;2023-05-14T13:08:30;4.28;;;2.90;;
72273;SDS011;60208;48.692;8.948;2023-05-14T13:11:05;2.97;;;2.67;;
72273;SDS011;60208;48.692;8.948;2023-05-14T13:13:43;3.85;;;3.03;;
72273;SDS011;60208;48.692;8.948;2023-05-14T13:16:31;4.30;;;3.83;;
72273;SDS011;60208;48.692;8.948;2023-05-14T13:19:06;4.05;;;3.55;;
72273;SDS011;60208;48.692;8.948;2023-05-14T13:22:10;4.88;;;4.30;;
72273;SDS011;60208;48.692;8.948;2023-05-14T13:24:48;4.18;;;3.78;;
72273;SDS011;60208;48.692;8.948;2023-05-14T13:27:53;5.60;;;3.97;;
72273;SDS011;60208;48.692;8.948;2023-05-14T13:34:04;5.55;;;5.05;;
72273;SDS011;60208;48.692;8.948;2023-05-14T13:36:36;5.50;;;5.00;;
72273;SDS011;60208;48.692;8.948;2023-05-14T13:39:14;6.07;;;5.03;;
72273;SDS011;60208;48.692;8.948;2023-05-14T13:41:55;5.35;;;4.90;;
72273;SDS011;60208;48.692;8.948;2023-05-14T13:44:36;5.85;;;4.90;;
72273;SDS011;60208;48.692;8.948;2023-05-14T13:47:23;5.20;;;4.78;;
72273;SDS011;60208;48.692;8.948;2023-05-14T13:50:09;4.63;;;4.22;;
72273;SDS011;60208;48.692;8.948;2023-05-14T13:53:02;4.78;;;4.25;;
72273;SDS011;60208;48.692;8.948;2023-05-14T13:55:51;6.75;;;4.75;;
72273;SDS011;60208;48.692;8.948;2023-05-14T13:58:25;4.85;;;4.38;;
72273;SDS011;60208;48.692;8.948;2023-05-14T14:00:53;5.72;;;4.53;;
72273;SDS011;60208;48.692;8.948;2023-05-14T14:06:52;4.95;;;4.32;;
72273;SDS011;60208;48.692;8.948;2023-05-14T14:09:34;4.32;;;3.92;;
72273;SDS011;60208;48.692;8.948;2023-05-14T14:12:09;6.25;;;4.50;;
72273;SDS011;60208;48.692;8.948;2023-05-14T14:20:58;4.25;;;3.90;;
72273;SDS011;60208;48.692;8.948;2023-05-14T14:23:33;5.10;;;4.13;;
72273;SDS011;60208;48.692;8.948;2023-05-14T14:26:21;5.40;;;3.60;;
72273;SDS011;60208;48.692;8.948;2023-05-14T14:29:15;4.57;;;3.85;;
72273;SDS011;60208;48.692;8.948;2023-05-14T14:32:21;3.50;;;3.20;;
72273;SDS011;60208;48.692;8.948;2023-05-14T14:34:47;3.85;;;3.45;;
72273;SDS011;60208;48.692;8.948;2023-05-14T14:37:39;3.92;;;3.53;;
72273;SDS011;60208;48.692;8.948;2023-05-14T14:40:09;4.70;;;3.70;;
72273;SDS011;60208;48.692;8.948;2023-05-14T14:46:04;3.85;;;3.30;;
72273;SDS011;60208;48.692;8.948;2023-05-14T14:48:42;4.00;;;3.60;;
72273;SDS011;60208;48.692;8.948;2023-05-14T14:51:26;5.65;;;3.80;;
72273;SDS011;60208;48.692;8.948;2023-05-14T14:57:22;3.90;;;3.60;;
72273;SDS011;60208;48.692;8.948;2023-05-14T14:59:57;3.08;;;2.88;;
72273;SDS011;60208;48.692;8.948;2023-05-14T15:02:22;4.10;;;3.30;;
72273;SDS011;60208;48.692;8.948;2023-05-14T15:05:28;4.00;;;3.55;;
72273;SDS011;60208;48.692;8.948;2023-05-14T15:08:06;4.55;;;3.58;;
72273;SDS011;60208;48.692;8.948;2023-05-14T15:10:50;3.83;;;3.53;;
72273;SDS011;60208;48.692;8.948;2023-05-14T15:13:18;3.88;;;3.58;;
72273;SDS011;60208;48.692;8.948;2023-05-14T15:15:45;4.13;;;3.70;;
72273;SDS011;60208;48.692;8.948;2023-05-14T15:18:11;4.53;;;3.90;;
72273;SDS011;60208;48.692;8.948;2023-05-14T15:20:37;5.65;;;4.18;;
72273;SDS011;60208;48.692;8.948;2023-05-14T15:23:12;3.97;;;3.67;;
72273;SDS011;60208;48.692;8.948;2023-05-14T15:25:43;4.10;;;3.70;;
72273;SDS011;60208;48.692;8.948;2023-05-14T15:28:46;5.00;;;3.60;;
72273;SDS011;60208;48.692;8.948;2023-05-14T15:31:47;3.67;;;3.33;;
72273;SDS011;60208;48.692;8.948;2023-05-14T15:34:13;5.18;;;3.10;;
72273;SDS011;60208;48.692;8.948;2023-05-14T15:36:49;4.22;;;3.78;;
72273;SDS011;60208;48.692;8.948;2023-05-14T15:39:37;4.68;;;3.58;;
72273;SDS011;60208;48.692;8.948;2023-05-14T15:42:34;5.22;;;3.40;;
72273;SDS011;60208;48.692;8.948;2023-05-14T15:45:43;5.03;;;3.70;;
72273;SDS011;60208;48.692;8.948;2023-05-14T15:48:35;3.70;;;3.40;;
72273;SDS011;60208;48.692;8.948;2023-05-14T15:51:22;3.10;;;2.70;;
72273;SDS011;60208;48.692;8.948;2023-05-14T15:54:25;3.50;;;3.20;;
72273;SDS011;60208;48.692;8.948;2023-05-14T15:57:11;4.00;;;2.97;;
72273;SDS011;60208;48.692;8.948;2023-05-14T15:59:54;3.00;;;2.80;;
72273;SDS011;60208;48.692;8.948;2023-05-14T16:02:42;4.18;;;3.50;;
72273;SDS011;60208;48.692;8.948;2023-05-14T16:08:21;3.33;;;2.85;;
72273;SDS011;60208;48.692;8.948;2023-05-14T16:11:34;4.38;;;3.97;;
72273;SDS011;60208;48.692;8.948;2023-05-14T16:17:16;3.72;;;3.42;;
72273;SDS011;60208;48.692;8.948;2023-05-14T16:19:41;3.70;;;2.88;;
72273;SDS011;60208;48.692;8.948;2023-05-14T16:22:10;3.53;;;2.78;;
72273;SDS011;60208;48.692;8.948;2023-05-14T16:24:36;3.45;;;3.00;;
72273;SDS011;60208;48.692;8.948;2023-05-14T16:27:05;3.80;;;3.50;;
72273;SDS011;60208;48.692;8.948;2023-05-14T16:29:39;14.63;;;10.95;;
72273;SDS011;60208;48.692;8.948;2023-05-14T16:32:17;3.83;;;3.10;;
72273;SDS011;60208;48.692;8.948;2023-05-14T16:37:40;3.40;;;3.10;;
72273;SDS011;60208;48.692;8.948;2023-05-14T16:46:39;4.10;;;3.13;;
72273;SDS011;60208;48.692;8.948;2023-05-14T16:49:18;3.75;;;2.90;;
72273;SDS011;60208;48.692;8.948;2023-05-14T17:01:41;3.58;;;3.25;;
72273;SDS011;60208;48.692;8.948;2023-05-14T17:04:35;4.50;;;3.25;;
72273;SDS011;60208;48.692;8.948;2023-05-14T17:10:29;3.35;;;3.00;;
72273;SDS011;60208;48.692;8.948;2023-05-14T17:13:32;5.47;;;4.20;;
72273;SDS011;60208;48.692;8.948;2023-05-14T17:15:58;5.20;;;4.30;;
72273;SDS011;60208;48.692;8.948;2023-05-14T17:22:08;3.78;;;3.42;;
72273;SDS011;60208;48.692;8.948;2023-05-14T17:24:46;3.92;;;3.33;;
72273;SDS011;60208;48.692;8.948;2023-05-14T17:27:50;4.03;;;3.17;;
72273;SDS011;60208;48.692;8.948;2023-05-14T17:30:59;3.53;;;3.22;;
72273;SDS011;60208;48.692;8.948;2023-05-14T17:33:27;3.58;;;3.28;;
72273;SDS011;60208;48.692;8.948;2023-05-14T17:35:55;4.38;;;3.67;;
72273;SDS011;60208;48.692;8.948;2023-05-14T17:38:20;3.60;;;2.85;;
72273;SDS011;60208;48.692;8.948;2023-05-14T17:41:09;4.47;;;3.50;;
72273;SDS011;60208;48.692;8.948;2023-05-14T17:43:43;3.97;;;3.58;;
72273;SDS011;60208;48.692;8.948;2023-05-14T17:46:34;4.30;;;3.40;;